Time;durP1;ratioP1;P1;durP2;ratioP2;P2;SDS_P1;SDS_P2;PMS_P1;PMS_P2;Temp;Humidity;BMP_temperature;BMP_pressure;BME280_temperature;BME280_humidity;BME280_pressure;Samples;Min_cycle;Max_cycle;Signal;HPM_P1;HPM_P2
2021/09/28 00:00:03;;;;;;;10.63;9.50;;;;;;;10.08;100.00;101441.02;1752069;80;21706;-86
2021/09/28 00:02:34;;;;;;;14.00;10.05;;;;;;;10.07;100.00;101436.73;1748460;81;21850;-88
2021/09/28 00:05:01;;;;;;;11.53;10.35;;;;;;;10.03;100.00;101436.56;1724346;80;21037;-89
2021/09/28 00:07:29;;;;;;;11.08;9.98;;;;;;;10.00;100.00;101442.42;1724511;81;21029;-87
2021/09/28 00:09:56;;;;;;;10.70;9.40;;;;;;;9.97;100.00;101443.89;1751888;81;21151;-88
2021/09/28 00:12:23;;;;;;;11.60;10.30;;;;;;;10.00;100.00;101445.84;1724746;81;21065;-84
2021/09/28 00:14:50;;;;;;;10.53;9.43;;;;;;;9.98;100.00;101437.28;1725263;81;20959;-86
2021/09/28 00:17:17;;;;;;;11.30;9.98;;;;;;;10.01;100.00;101441.02;1752805;81;21009;-89
2021/09/28 00:19:44;;;;;;;13.68;10.75;;;;;;;10.08;100.00;101437.11;1725564;81;21073;-84
2021/09/28 00:22:13;;;;;;;11.83;9.28;;;;;;;10.15;100.00;101438.05;1753050;80;21161;-89
2021/09/28 00:24:40;;;;;;;11.12;9.53;;;;;;;10.17;100.00;101440.09;1752769;81;21088;-87
2021/09/28 00:27:07;;;;;;;15.53;10.28;;;;;;;10.08;100.00;101438.90;1732037;80;21944;-86
2021/09/28 00:29:34;;;;;;;11.18;9.98;;;;;;;10.01;100.00;101440.20;1767501;80;21697;-89
2021/09/28 00:32:01;;;;;;;11.20;9.98;;;;;;;9.96;100.00;101437.86;1754643;80;21112;-86
2021/09/28 00:34:28;;;;;;;16.20;10.63;;;;;;;9.89;100.00;101438.68;1755319;80;21944;-86
2021/09/28 00:36:55;;;;;;;11.05;9.95;;;;;;;9.85;100.00;101442.85;1783321;80;21136;-89
2021/09/28 00:39:22;;;;;;;11.55;10.13;;;;;;;9.74;100.00;101436.50;1754714;80;21128;-91
2021/09/28 00:41:49;;;;;;;12.53;10.05;;;;;;;9.69;100.00;101442.93;1754318;80;21026;-89
2021/09/28 00:44:16;;;;;;;11.33;10.13;;;;;;;9.68;100.00;101437.34;1754762;80;21490;-89
2021/09/28 00:46:43;;;;;;;12.60;9.90;;;;;;;9.62;100.00;101436.76;1754356;80;21067;-86
2021/09/28 00:49:11;;;;;;;11.48;10.28;;;;;;;9.57;100.00;101441.88;1754416;80;21545;-85
2021/09/28 00:51:39;;;;;;;12.93;10.03;;;;;;;9.52;100.00;101432.19;1783090;80;21516;-86
2021/09/28 00:54:06;;;;;;;11.83;10.60;;;;;;;9.50;100.00;101439.23;1754611;80;21022;-89
2021/09/28 00:56:33;;;;;;;12.60;10.58;;;;;;;9.42;100.00;101442.28;1783128;80;21034;-87
2021/09/28 00:59:01;;;;;;;15.38;10.45;;;;;;;9.31;100.00;101444.20;1783316;80;21133;-86
2021/09/28 01:01:28;;;;;;;11.10;9.90;;;;;;;9.20;100.00;101442.20;1754483;80;21002;-87
2021/09/28 01:03:55;;;;;;;13.10;11.10;;;;;;;9.10;100.00;101450.13;1754886;80;21002;-93
2021/09/28 01:06:22;;;;;;;14.73;11.03;;;;;;;8.98;100.00;101451.65;1754531;80;21093;-89
2021/09/28 01:08:49;;;;;;;15.18;10.95;;;;;;;8.90;100.00;101458.55;1752930;80;21077;-90
2021/09/28 01:11:17;;;;;;;11.73;10.53;;;;;;;8.87;100.00;101456.58;1744558;81;21085;-90
2021/09/28 01:13:46;;;;;;;14.28;11.10;;;;;;;8.84;100.00;101464.94;1781999;80;21034;-91
2021/09/28 01:16:13;;;;;;;12.40;10.40;;;;;;;8.81;100.00;101466.86;1757471;80;21108;-92
2021/09/28 01:18:43;;;;;;;12.00;10.70;;;;;;;8.77;100.00;101472.66;1757564;80;21140;-92
2021/09/28 01:21:14;;;;;;;13.38;11.00;;;;;;;8.75;100.00;101470.63;1757433;80;21022;-87
2021/09/28 01:23:45;;;;;;;11.83;10.13;;;;;;;8.77;100.00;101471.83;1782108;80;21160;-87
2021/09/28 01:26:17;;;;;;;14.43;11.47;;;;;;;8.77;100.00;101475.72;1782440;80;21403;-90
2021/09/28 01:28:46;;;;;;;13.48;10.82;;;;;;;8.77;100.00;101473.95;1757707;80;21081;-89
2021/09/28 01:31:13;;;;;;;13.62;10.15;;;;;;;8.78;100.00;101476.11;1782074;80;21053;-85
2021/09/28 01:33:41;;;;;;;13.50;10.68;;;;;;;8.75;100.00;101470.63;1757986;80;20998;-87
2021/09/28 01:36:10;;;;;;;15.70;11.18;;;;;;;8.75;100.00;101477.56;1782520;80;21157;-89
2021/09/28 01:38:37;;;;;;;11.30;10.10;;;;;;;8.71;100.00;101472.99;1757888;80;20979;-85
2021/09/28 01:41:04;;;;;;;11.90;10.38;;;;;;;8.71;100.00;101474.29;1782375;80;21026;-88
2021/09/28 01:43:31;;;;;;;12.15;10.38;;;;;;;8.73;100.00;101470.34;1782130;80;21042;-89
2021/09/28 01:46:03;;;;;;;23.73;11.80;;;;;;;8.75;100.00;101471.92;1782235;80;21053;-86
2021/09/28 01:48:52;;;;;;;;;;;;;;;8.78;100.00;101474.33;1765963;80;21083;-90
2021/09/28 01:51:20;;;;;;;23.52;10.82;;;;;;;8.84;100.00;101471.88;1763192;80;20183;-89
2021/09/28 01:53:48;;;;;;;22.77;10.88;;;;;;;8.84;100.00;101472.73;1790247;80;21061;-85
2021/09/28 01:56:22;;;;;;;11.80;10.60;;;;;;;8.81;100.00;101469.47;1790591;80;21033;-91
2021/09/28 01:58:49;;;;;;;14.07;9.98;;;;;;;8.80;100.00;101472.50;1789870;78;21672;-88
2021/09/28 02:01:17;;;;;;;12.80;10.65;;;;;;;8.78;100.00;101473.03;1790646;79;21929;-85
2021/09/28 02:03:44;;;;;;;11.57;10.43;;;;;;;8.76;100.00;101467.55;1770429;80;21070;-87
2021/09/28 02:06:15;;;;;;;12.90;10.28;;;;;;;8.68;100.00;101466.21;1770455;81;21549;-85
2021/09/28 02:08:41;;;;;;;12.68;10.93;;;;;;;8.66;100.00;101467.22;1746033;81;21674;-84
2021/09/28 02:11:08;;;;;;;16.60;10.90;;;;;;;8.64;100.00;101468.61;1737415;81;21031;-88
2021/09/28 02:13:35;;;;;;;14.23;11.12;;;;;;;8.59;100.00;101469.77;1758297;79;21057;-86
2021/09/28 02:16:06;;;;;;;12.98;11.03;;;;;;;8.56;100.00;101466.02;1765190;80;20903;-84
2021/09/28 02:18:36;;;;;;;11.60;10.30;;;;;;;8.53;100.00;101468.33;1785884;79;20989;-86
2021/09/28 02:21:06;;;;;;;17.07;11.63;;;;;;;8.46;100.00;101465.17;1750584;81;20966;-87
2021/09/28 02:23:33;;;;;;;12.90;11.40;;;;;;;8.43;100.00;101473.58;1758439;79;21547;-88
2021/09/28 02:26:00;;;;;;;13.15;10.63;;;;;;;8.42;100.00;101472.76;1750837;81;22048;-87
2021/09/28 02:28:27;;;;;;;14.18;11.18;;;;;;;8.39;100.00;101474.67;1785460;79;21037;-92
2021/09/28 02:30:54;;;;;;;13.20;11.68;;;;;;;8.40;100.00;101479.78;1750247;80;21088;-93
2021/09/28 02:33:21;;;;;;;18.07;11.38;;;;;;;8.43;100.00;101483.97;1758235;80;21017;-87
2021/09/28 02:35:48;;;;;;;15.28;11.20;;;;;;;8.42;100.00;101487.03;1758543;80;20994;-90
2021/09/28 02:38:16;;;;;;;11.57;10.38;;;;;;;8.44;100.00;101495.59;1758292;80;21014;-85
2021/09/28 02:40:43;;;;;;;15.48;10.53;;;;;;;8.48;100.00;101496.30;1758624;80;20953;-91
2021/09/28 02:43:13;;;;;;;13.53;10.30;;;;;;;8.52;100.00;101496.50;1758699;80;21159;-89
2021/09/28 02:45:40;;;;;;;12.85;10.78;;;;;;;8.60;100.00;101494.81;1750341;81;21029;-88
2021/09/28 02:48:07;;;;;;;12.25;9.90;;;;;;;8.69;100.00;101498.22;1758971;80;20953;-92
2021/09/28 02:50:34;;;;;;;13.35;11.00;;;;;;;8.78;100.00;101505.97;1750775;81;20978;-90
2021/09/28 02:53:02;;;;;;;12.98;10.28;;;;;;;8.82;100.00;101501.83;1759562;79;21009;-86
2021/09/28 02:55:30;;;;;;;13.40;10.48;;;;;;;8.81;100.00;101503.22;1785932;80;21134;-87
2021/09/28 02:57:59;;;;;;;51.42;11.97;;;;;;;8.83;100.00;101507.85;1785912;80;21048;-86
2021/09/28 03:00:28;;;;;;;22.55;11.05;;;;;;;8.84;100.00;101511.69;1765772;81;21666;-86
2021/09/28 03:02:55;;;;;;;25.92;11.65;;;;;;;8.98;100.00;101508.80;1758780;80;21062;-92
2021/09/28 03:05:22;;;;;;;24.12;11.45;;;;;;;9.12;100.00;101511.95;1750215;81;21041;-84
2021/09/28 03:07:49;;;;;;;27.02;10.85;;;;;;;9.23;100.00;101517.86;1785339;79;21052;-89
2021/09/28 03:10:17;;;;;;;20.27;12.13;;;;;;;9.34;100.00;101514.18;1745257;81;21024;-84
2021/09/28 03:12:44;;;;;;;22.40;14.63;;;;;;;9.42;100.00;101522.39;1752580;81;21563;-86
2021/09/28 03:15:13;;;;;;;36.40;17.42;;;;;;;9.49;100.00;101522.08;1757454;81;21002;-87
2021/09/28 03:17:40;;;;;;;22.55;12.73;;;;;;;9.55;100.00;101520.42;1693946;81;20950;-86
2021/09/28 03:20:10;;;;;;;17.00;11.57;;;;;;;9.59;100.00;101516.27;1757687;80;21541;-94
2021/09/28 03:22:39;;;;;;;22.25;10.78;;;;;;;9.61;100.00;101519.59;1732837;81;20984;-83
2021/09/28 03:25:06;;;;;;;10.82;9.53;;;;;;;9.60;100.00;101519.69;1749293;81;21047;-91
2021/09/28 03:27:33;;;;;;;15.03;9.80;;;;;;;9.57;100.00;101523.78;1748704;81;22017;-84
2021/09/28 03:30:00;;;;;;;12.63;9.18;;;;;;;9.51;100.00;101520.20;1723073;82;21042;-85
2021/09/28 03:32:27;;;;;;;9.88;8.90;;;;;;;9.44;100.00;101519.73;1723344;82;21020;-85
2021/09/28 03:34:56;;;;;;;10.63;8.88;;;;;;;9.37;100.00;101521.82;1749154;82;21003;-84
2021/09/28 03:37:23;;;;;;;10.70;9.60;;;;;;;9.30;100.00;101529.11;1723587;82;21562;-82
2021/09/28 03:39:50;;;;;;;13.72;9.85;;;;;;;9.21;100.00;101525.74;1723700;82;20960;-88
2021/09/28 03:42:19;;;;;;;8.20;7.40;;;;;;;9.08;100.00;101525.58;1749411;81;20960;-90
2021/09/28 03:44:47;;;;;;;7.83;7.00;;;;;;;8.91;100.00;101525.64;1723172;80;21777;-87
2021/09/28 03:47:13;;;;;;;9.58;7.60;;;;;;;8.72;100.00;101530.50;1717893;82;21016;-89
2021/09/28 03:49:41;;;;;;;37.08;8.65;;;;;;;8.52;100.00;101532.40;1734352;81;20993;-83
2021/09/28 03:52:08;;;;;;;49.73;9.48;;;;;;;8.38;100.00;101537.41;1744559;81;21135;-87
2021/09/28 03:54:35;;;;;;;9.53;8.53;;;;;;;8.32;100.00;101534.69;1719797;81;21511;-87
2021/09/28 03:57:02;;;;;;;10.18;8.75;;;;;;;8.27;100.00;101539.25;1760680;81;21551;-89
2021/09/28 03:59:29;;;;;;;19.23;8.70;;;;;;;8.13;100.00;101533.45;1734647;81;20953;-85
2021/09/28 04:01:56;;;;;;;29.35;9.20;;;;;;;8.02;100.00;101540.95;1734857;81;21463;-91
2021/09/28 04:04:24;;;;;;;39.45;10.13;;;;;;;7.98;100.00;101542.00;1734572;81;21085;-88
2021/09/28 04:06:51;;;;;;;31.05;9.63;;;;;;;7.99;100.00;101539.80;1734644;81;21040;-87
2021/09/28 04:09:18;;;;;;;30.27;9.75;;;;;;;8.03;100.00;101536.15;1734619;81;21087;-88
2021/09/28 04:11:46;;;;;;;21.65;10.50;;;;;;;8.14;100.00;101539.03;1762099;80;21029;-88
2021/09/28 04:14:16;;;;;;;16.80;10.58;;;;;;;8.26;100.00;101545.36;1762572;80;20953;-86
2021/09/28 04:16:42;;;;;;;17.10;10.55;;;;;;;8.32;100.00;101555.89;1791782;80;21155;-84
2021/09/28 04:19:10;;;;;;;14.38;10.25;;;;;;;8.35;100.00;101557.05;1750627;81;21096;-88
2021/09/28 04:21:38;;;;;;;19.15;10.80;;;;;;;8.32;100.00;101558.48;1761352;81;21029;-90
2021/09/28 04:24:06;;;;;;;18.90;12.68;;;;;;;8.30;100.00;101553.83;1761424;81;21046;-89
2021/09/28 04:26:35;;;;;;;15.95;11.18;;;;;;;8.26;100.00;101553.14;1731042;81;21479;-85
2021/09/28 04:29:02;;;;;;;18.25;10.88;;;;;;;8.24;100.00;101558.89;1731239;81;21156;-86
2021/09/28 04:31:30;;;;;;;24.95;11.73;;;;;;;8.27;100.00;101559.19;1731035;81;21003;-88
2021/09/28 04:33:57;;;;;;;24.63;11.70;;;;;;;8.27;100.00;101561.31;1761102;81;21049;-84
2021/09/28 04:36:24;;;;;;;15.75;10.82;;;;;;;8.35;100.00;101563.06;1761350;81;21009;-87
2021/09/28 04:38:52;;;;;;;18.85;11.53;;;;;;;8.47;100.00;101565.99;1731119;81;21010;-88
2021/09/28 04:41:19;;;;;;;13.43;11.03;;;;;;;8.51;100.00;101564.47;1740418;80;21089;-89
2021/09/28 04:43:47;;;;;;;13.85;11.22;;;;;;;8.55;100.00;101569.48;1767279;80;21026;-86
2021/09/28 04:46:15;;;;;;;14.85;10.75;;;;;;;8.58;100.00;101564.97;1781681;79;21092;-86
2021/09/28 11:37:40;;;;;;;25.70;6.53;;;;;;;15.31;100.00;101671.45;1850830;76;22297;-86
2021/09/28 11:40:11;;;;;;;27.48;7.08;;;;;;;15.41;100.00;101674.17;1761705;79;21026;-86
2021/09/28 11:42:38;;;;;;;24.35;6.50;;;;;;;15.44;100.00;101676.56;1761507;78;21071;-84
2021/09/28 11:45:07;;;;;;;25.57;6.97;;;;;;;15.34;100.00;101676.47;1792078;79;21015;-81
2021/09/28 11:47:40;;;;;;;30.50;7.87;;;;;;;15.16;100.00;101676.09;1766219;78;21035;-85
2021/09/28 11:50:04;;;;;;;17.90;7.12;;;;;;;15.02;100.00;101679.81;1788122;77;21441;-87
2021/09/28 11:52:38;;;;;;;19.80;6.30;;;;;;;14.92;100.00;101677.05;1791774;77;20941;-84
2021/09/28 11:55:07;;;;;;;20.60;6.70;;;;;;;14.82;100.00;101672.17;1814711;77;21157;-87
2021/09/28 11:57:35;;;;;;;14.95;6.08;;;;;;;14.77;100.00;101675.14;1817214;77;20954;-85
2021/09/28 12:00:05;;;;;;;15.58;5.85;;;;;;;14.69;100.00;101677.50;1792124;79;20917;-83
2021/09/28 12:02:34;;;;;;;;;;;;;;;14.60;100.00;101675.55;1761226;80;21996;-88
2021/09/28 12:10:21;;;;;;;13.68;6.47;;;;;;;14.59;100.00;101683.87;1727662;81;20996;-84
2021/09/28 12:12:50;;;;;;;16.93;6.53;;;;;;;14.58;100.00;101684.81;1752748;80;21058;-85
2021/09/28 12:15:17;;;;;;;28.52;7.60;;;;;;;14.56;100.00;101680.64;1727702;80;21063;-90
2021/09/28 12:17:47;;;;;;;19.57;6.80;;;;;;;14.52;100.00;101689.21;1752907;79;21134;-86
2021/09/28 12:20:21;;;;;;;22.05;6.70;;;;;;;14.48;100.00;101691.23;1714872;81;21928;-83
2021/09/28 12:22:53;;;;;;;21.85;7.10;;;;;;;14.44;100.00;101687.18;1740036;80;21148;-84
2021/09/28 12:25:31;;;;;;;20.62;7.22;;;;;;;14.41;100.00;101693.95;1727655;81;21053;-84
2021/09/28 12:28:03;;;;;;;25.92;6.40;;;;;;;14.36;100.00;101686.91;1705114;80;21670;-83
2021/09/28 12:30:34;;;;;;;32.60;7.42;;;;;;;14.39;100.00;101693.70;1727454;81;21528;-84
2021/09/28 12:33:05;;;;;;;24.95;7.80;;;;;;;14.36;100.00;101695.59;1711671;81;21096;-90
2021/09/28 12:35:36;;;;;;;22.02;8.48;;;;;;;14.31;100.00;101695.57;1749025;78;21072;-82
2021/09/28 12:38:09;;;;;;;17.05;7.97;;;;;;;14.23;100.00;101701.84;1737200;80;21099;-85
2021/09/28 12:40:42;;;;;;;23.47;9.35;;;;;;;14.13;100.00;101707.78;1729327;81;21032;-85
2021/09/28 12:43:16;;;;;;;20.85;9.45;;;;;;;14.03;100.00;101708.09;1722409;80;21139;-82
2021/09/28 12:45:55;;;;;;;26.12;12.20;;;;;;;13.94;100.00;101708.75;1699908;80;21038;-83
2021/09/28 12:48:35;;;;;;;28.30;11.30;;;;;;;13.86;100.00;101704.08;1751652;80;21073;-83
2021/09/28 12:51:06;;;;;;;20.72;9.25;;;;;;;13.80;100.00;101713.20;1747301;80;21037;-83
2021/09/28 12:53:36;;;;;;;20.08;8.63;;;;;;;13.73;100.00;101711.48;1725972;81;21042;-86
2021/09/28 12:56:04;;;;;;;20.62;8.33;;;;;;;13.67;100.00;101709.77;1725973;82;21583;-82
2021/09/28 12:58:33;;;;;;;23.55;9.53;;;;;;;13.62;100.00;101714.50;1749519;81;21162;-83
2021/09/28 13:01:01;;;;;;;16.97;7.42;;;;;;;13.58;100.00;101719.59;1725892;82;21035;-85
2021/09/28 13:03:32;;;;;;;18.98;6.90;;;;;;;13.52;100.00;101718.24;1739794;79;21102;-83
2021/09/28 13:06:09;;;;;;;18.43;7.20;;;;;;;13.47;100.00;101719.88;1766993;81;21539;-83
2021/09/28 13:08:38;;;;;;;20.92;7.12;;;;;;;13.44;100.00;101716.64;1780391;79;21499;-86
2021/09/28 13:11:12;;;;;;;26.87;8.28;;;;;;;13.39;100.00;101719.08;1766054;80;21302;-87
2021/09/28 13:13:41;;;;;;;37.35;8.55;;;;;;;13.38;100.00;101722.64;1755542;79;21036;-87
2021/09/28 13:16:09;;;;;;;25.52;7.75;;;;;;;13.39;100.00;101728.24;1720093;81;20997;-83
2021/09/28 13:18:38;;;;;;;20.77;8.55;;;;;;;13.40;100.00;101736.45;1779615;79;21005;-85
2021/09/28 13:21:05;;;;;;;24.60;7.53;;;;;;;13.41;100.00;101735.52;1755686;80;21564;-87
2021/09/28 13:23:33;;;;;;;14.85;5.83;;;;;;;13.43;100.00;101745.87;1744021;81;21105;-83
2021/09/28 13:26:00;;;;;;;14.83;6.22;;;;;;;13.40;100.00;101748.23;1755562;79;20992;-85
2021/09/28 13:28:28;;;;;;;9.70;5.40;;;;;;;13.33;100.00;101752.67;1744070;81;21566;-84
2021/09/28 13:30:56;;;;;;;12.05;5.58;;;;;;;13.22;100.00;101752.92;1754526;79;21486;-85
2021/09/28 13:33:23;;;;;;;10.82;5.92;;;;;;;13.14;100.00;101751.30;1746150;80;21016;-92
2021/09/28 13:35:52;;;;;;;15.93;7.70;;;;;;;13.10;100.00;101755.05;1780708;78;21017;-92
2021/09/28 13:38:19;;;;;;;15.03;7.45;;;;;;;13.07;100.00;101759.20;1819055;77;21582;-84
2021/09/28 13:40:46;;;;;;;19.30;9.58;;;;;;;13.03;100.00;101757.27;1812281;77;20985;-87
2021/09/28 13:43:15;;;;;;;20.05;12.70;;;;;;;13.00;100.00;101761.86;1782614;78;21144;-87
2021/09/28 13:45:42;;;;;;;20.05;12.98;;;;;;;12.96;100.00;101761.69;1782600;79;21124;-86
2021/09/28 13:48:11;;;;;;;19.98;13.10;;;;;;;12.95;100.00;101766.09;1782656;78;21056;-84
2021/09/28 13:50:39;;;;;;;16.25;9.70;;;;;;;12.93;100.00;101774.05;1804984;78;21512;-85
2021/09/28 13:53:06;;;;;;;15.43;8.38;;;;;;;12.91;100.00;101773.30;1782764;79;21487;-84
2021/09/28 13:55:33;;;;;;;11.70;6.33;;;;;;;12.88;100.00;101776.59;1782395;79;20977;-87
2021/09/28 13:58:01;;;;;;;17.67;6.83;;;;;;;12.83;100.00;101774.28;1783000;78;21072;-90
2021/09/28 14:00:29;;;;;;;29.02;7.75;;;;;;;12.79;100.00;101775.41;1782607;78;21647;-87
2021/09/28 14:02:57;;;;;;;18.07;9.15;;;;;;;12.79;100.00;101778.02;1756677;79;20993;-86
2021/09/28 14:05:24;;;;;;;23.07;10.35;;;;;;;12.83;100.00;101781.27;1805199;79;21524;-86
2021/09/28 14:07:51;;;;;;;13.60;8.78;;;;;;;12.85;100.00;101780.70;1782593;78;21461;-87
2021/09/28 14:10:19;;;;;;;16.42;8.08;;;;;;;12.88;100.00;101785.74;1783276;79;21005;-87
2021/09/28 14:12:48;;;;;;;18.52;7.60;;;;;;;12.88;100.00;101785.26;1805437;78;21520;-87
2021/09/28 14:15:18;;;;;;;19.52;8.05;;;;;;;12.89;100.00;101783.50;1787559;77;21068;-82
2021/09/28 14:17:46;;;;;;;15.10;8.00;;;;;;;12.90;100.00;101787.77;1758853;80;21534;-88
2021/09/28 14:20:14;;;;;;;14.33;8.93;;;;;;;12.90;100.00;101788.62;1739881;81;20993;-86
2021/09/28 14:22:41;;;;;;;24.27;9.55;;;;;;;12.91;100.00;101788.98;1761997;80;21033;-85
2021/09/28 14:25:08;;;;;;;19.95;10.13;;;;;;;12.92;100.00;101794.59;1738362;79;21159;-85
2021/09/28 14:27:35;;;;;;;14.30;9.95;;;;;;;12.92;100.00;101794.59;1746618;81;21033;-89
2021/09/28 14:30:06;;;;;;;21.82;12.78;;;;;;;12.94;100.00;101793.99;1746967;80;21013;-88
2021/09/28 14:32:34;;;;;;;26.73;15.28;;;;;;;12.98;100.00;101799.03;1746727;80;21503;-88
2021/09/28 14:35:01;;;;;;;27.48;16.45;;;;;;;13.00;100.00;101803.70;1742220;81;21076;-88
2021/09/28 14:37:28;;;;;;;31.68;19.42;;;;;;;12.99;100.00;101801.53;1735533;79;21082;-85
2021/09/28 14:39:56;;;;;;;33.75;21.87;;;;;;;13.00;100.00;101808.92;1777213;79;21505;-84
2021/09/28 14:42:23;;;;;;;38.92;23.62;;;;;;;13.02;100.00;101807.88;1746506;80;21080;-84
2021/09/28 14:44:53;;;;;;;50.43;26.57;;;;;;;13.04;100.00;101809.08;1777158;79;21449;-85
2021/09/28 14:47:21;;;;;;;58.02;30.80;;;;;;;13.05;100.00;101810.75;1746737;79;21049;-87
2021/09/28 14:49:48;;;;;;;64.32;33.40;;;;;;;13.04;100.00;101812.55;1747318;80;21804;-88
2021/09/28 14:52:15;;;;;;;72.62;33.83;;;;;;;13.04;100.00;101815.61;1722372;80;20914;-82
2021/09/28 14:54:43;;;;;;;58.73;29.72;;;;;;;13.00;100.00;101813.67;1746715;80;20915;-87
2021/09/28 14:57:10;;;;;;;41.00;21.82;;;;;;;12.97;100.00;101826.11;1724697;80;21010;-88
2021/09/28 14:59:38;;;;;;;30.68;17.92;;;;;;;12.93;100.00;101827.64;1808092;78;21547;-85
2021/09/28 15:02:06;;;;;;;35.98;19.52;;;;;;;12.90;100.00;101826.52;1807958;78;21575;-87
2021/09/28 15:04:33;;;;;;;38.45;20.15;;;;;;;12.87;100.00;101831.11;1807688;78;21675;-87
2021/09/28 15:07:00;;;;;;;39.65;20.12;;;;;;;12.83;100.00;101827.86;1780717;79;20970;-86
2021/09/28 15:09:27;;;;;;;36.80;20.88;;;;;;;12.86;100.00;101835.48;1749640;80;21575;-84
2021/09/28 15:11:54;;;;;;;47.90;21.97;;;;;;;12.91;100.00;101834.73;1746552;80;20994;-83
2021/09/28 15:14:22;;;;;;;58.35;21.85;;;;;;;12.97;100.00;101827.42;1746576;81;21088;-84
2021/09/28 15:16:50;;;;;;;39.92;22.27;;;;;;;13.01;100.00;101834.14;1746353;80;21101;-88
2021/09/28 15:19:17;;;;;;;43.52;25.25;;;;;;;13.03;100.00;101830.92;1725359;81;21058;-83
2021/09/28 15:21:47;;;;;;;57.75;27.13;;;;;;;13.04;100.00;101836.08;1715642;80;21509;-88
2021/09/28 15:24:13;;;;;;;61.10;27.95;;;;;;;13.07;100.00;101830.63;1753392;79;21128;-85
2021/09/28 15:26:42;;;;;;;54.53;28.80;;;;;;;13.15;100.00;101834.50;1751437;79;21068;-85
2021/09/28 15:29:09;;;;;;;67.20;29.95;;;;;;;13.26;100.00;101836.77;1738660;81;21511;-86
2021/09/28 15:31:36;;;;;;;114.57;35.08;;;;;;;13.37;100.00;101836.06;1715541;78;21057;-86
2021/09/28 15:34:03;;;;;;;68.50;27.75;;;;;;;13.47;100.00;101836.30;1768742;79;21089;-84
2021/09/28 15:36:31;;;;;;;47.55;22.30;;;;;;;13.55;100.00;101842.30;1773210;77;21098;-86
2021/09/28 15:39:08;;;;;;;37.73;20.30;;;;;;;13.58;100.00;101842.11;1800768;78;21096;-85
2021/09/28 15:41:34;;;;;;;40.92;20.45;;;;;;;13.59;100.00;101842.94;1767035;79;21068;-81
2021/09/28 15:44:02;;;;;;;32.73;19.80;;;;;;;13.61;100.00;101845.84;1768895;80;21048;-89
2021/09/28 15:46:30;;;;;;;254.78;32.28;;;;;;;13.61;100.00;101845.84;1759738;80;21095;-87
2021/09/28 15:48:59;;;;;;;156.40;26.85;;;;;;;13.59;100.00;101851.64;1771207;79;20981;-84
2021/09/28 15:51:26;;;;;;;121.97;25.72;;;;;;;13.59;100.00;101858.18;1777939;78;21079;-85
2021/09/28 15:53:53;;;;;;;88.55;24.85;;;;;;;13.59;100.00;101861.25;1772613;80;20972;-84
2021/09/28 15:56:22;;;;;;;50.67;23.85;;;;;;;13.60;100.00;101860.31;1788612;79;21110;-83
2021/09/28 15:58:49;;;;;;;52.15;24.00;;;;;;;13.59;100.00;101858.64;1765384;79;21067;-85
2021/09/28 16:01:17;;;;;;;48.28;25.55;;;;;;;13.58;100.00;101862.22;1716962;80;22041;-85
2021/09/28 16:03:45;;;;;;;53.25;25.55;;;;;;;13.56;100.00;101863.16;1781509;79;21938;-83
2021/09/28 16:06:17;;;;;;;48.95;26.77;;;;;;;13.54;100.00;101866.83;1771866;79;21063;-86
2021/09/28 16:08:45;;;;;;;56.90;25.72;;;;;;;13.52;100.00;101868.70;1772806;78;21652;-88
2021/09/28 16:11:15;;;;;;;46.18;24.12;;;;;;;13.47;100.00;101873.39;1741878;80;21549;-88
2021/09/28 16:13:45;;;;;;;36.50;23.05;;;;;;;13.37;100.00;101874.00;1768692;79;21615;-88
2021/09/28 16:16:14;;;;;;;40.65;22.22;;;;;;;13.29;100.00;101880.22;1770052;78;21082;-88
2021/09/28 16:18:41;;;;;;;32.40;21.75;;;;;;;13.22;100.00;101877.64;1743566;80;21083;-85
2021/09/28 16:21:10;;;;;;;36.05;20.70;;;;;;;13.19;100.00;101879.14;1781635;79;21050;-83
2021/09/28 16:23:38;;;;;;;33.02;19.20;;;;;;;13.14;100.00;101882.55;1782228;79;20999;-92
2021/09/28 16:26:05;;;;;;;35.55;19.25;;;;;;;13.04;100.00;101879.67;1769842;80;21099;-84
2021/09/28 16:28:33;;;;;;;32.65;18.60;;;;;;;12.96;100.00;101884.11;1776529;79;21778;-89
2021/09/28 16:31:00;;;;;;;37.50;19.87;;;;;;;12.93;100.00;101888.22;1771290;80;21023;-83
2021/09/28 16:33:27;;;;;;;31.57;19.12;;;;;;;12.87;100.00;101887.31;1808766;78;21493;-87
2021/09/28 16:35:57;;;;;;;32.03;22.45;;;;;;;12.80;100.00;101888.17;1761567;79;21530;-86
2021/09/28 16:38:25;;;;;;;36.77;23.98;;;;;;;12.72;100.00;101888.68;1756024;80;21037;-85
2021/09/28 16:40:52;;;;;;;42.03;26.85;;;;;;;12.59;100.00;101889.92;1757109;80;21803;-85
2021/09/28 16:43:19;;;;;;;47.10;29.25;;;;;;;12.47;100.00;101894.60;1783947;79;21531;-87
2021/09/28 16:45:47;;;;;;;45.05;28.27;;;;;;;12.41;100.00;101891.94;1793752;78;21036;-83
2021/09/28 16:48:14;;;;;;;54.88;29.18;;;;;;;12.33;100.00;101890.27;1795197;78;21008;-85
2021/09/28 16:50:41;;;;;;;54.33;29.50;;;;;;;12.22;100.00;101892.21;1810174;77;21511;-89
2021/09/28 16:53:08;;;;;;;70.42;31.23;;;;;;;12.17;100.00;101895.59;1748232;80;21052;-89
2021/09/28 16:55:35;;;;;;;55.50;26.35;;;;;;;12.12;100.00;101893.73;1794258;78;21008;-89
2021/09/28 16:58:02;;;;;;;35.75;20.35;;;;;;;12.08;100.00;101898.75;1761466;80;21052;-86
2021/09/28 17:00:29;;;;;;;32.60;18.77;;;;;;;12.06;100.00;101899.34;1795204;78;21044;-85
2021/09/28 17:02:56;;;;;;;25.75;16.25;;;;;;;12.02;100.00;101899.14;1761531;79;21087;-84
2021/09/28 17:05:23;;;;;;;25.90;17.62;;;;;;;11.99;100.00;101904.08;1761234;80;21787;-88
2021/09/28 17:07:50;;;;;;;49.63;21.97;;;;;;;11.93;100.00;101903.95;1752569;79;21036;-85
2021/09/28 17:10:17;;;;;;;55.23;23.77;;;;;;;11.87;100.00;101903.02;1737735;81;21618;-86
2021/09/28 17:12:44;;;;;;;41.65;20.25;;;;;;;11.84;100.00;101911.02;1760611;79;21064;-85
2021/09/28 17:15:11;;;;;;;31.52;17.17;;;;;;;11.79;100.00;101911.30;1794435;79;21051;-84
2021/09/28 17:17:39;;;;;;;28.15;17.52;;;;;;;11.74;100.00;101921.18;1794462;78;21036;-84
2021/09/28 17:20:10;;;;;;;27.40;19.25;;;;;;;11.69;100.00;101927.15;1794157;78;21103;-85
2021/09/28 17:22:39;;;;;;;34.27;20.50;;;;;;;11.64;100.00;101930.02;1768251;77;21094;-87
2021/09/28 17:25:11;;;;;;;32.10;19.30;;;;;;;11.61;100.00;101926.76;1792679;77;20996;-83
2021/09/28 17:27:39;;;;;;;30.77;19.45;;;;;;;11.58;100.00;101932.97;1777166;78;21138;-88
2021/09/28 17:30:08;;;;;;;30.25;19.98;;;;;;;11.55;100.00;101937.08;1764534;79;21149;-90
2021/09/28 17:32:36;;;;;;;30.37;18.75;;;;;;;11.56;100.00;101936.16;1754538;79;21536;-88
2021/09/28 17:35:12;;;;;;;28.40;18.25;;;;;;;11.58;100.00;101936.88;1767015;78;21046;-86
2021/09/28 17:37:36;;;;;;;26.75;18.30;;;;;;;11.57;100.00;101932.63;1798278;77;21085;-84
2021/09/28 17:40:05;;;;;;;29.25;19.23;;;;;;;11.52;100.00;101935.94;1793137;78;22062;-82
2021/09/28 17:42:34;;;;;;;29.50;16.55;;;;;;;11.49;100.00;101940.88;1783871;79;21110;-86
2021/09/28 17:45:02;;;;;;;26.93;17.70;;;;;;;11.46;100.00;101938.44;1728859;82;21533;-87
2021/09/28 17:47:29;;;;;;;29.95;21.55;;;;;;;11.47;100.00;101936.69;1705976;81;21496;-90
2021/09/28 17:49:56;;;;;;;31.90;23.42;;;;;;;11.47;100.00;101939.30;1702373;82;21051;-84
2021/09/28 17:52:23;;;;;;;31.17;22.37;;;;;;;11.47;100.00;101938.81;1794530;78;21048;-86
2021/09/28 17:55:03;;;;;;;29.40;22.52;;;;;;;11.48;100.00;101938.37;1794602;78;21165;-82
2021/09/28 17:57:24;;;;;;;23.70;19.98;;;;;;;11.48;100.00;101944.89;1794837;78;21075;-87
2021/09/28 17:59:53;;;;;;;20.10;16.25;;;;;;;11.45;100.00;101948.97;1733129;80;21081;-86
2021/09/28 18:02:23;;;;;;;19.37;13.18;;;;;;;11.42;100.00;101951.73;1753125;80;21088;-84
2021/09/28 18:04:51;;;;;;;22.27;12.63;;;;;;;11.34;100.00;101947.80;1782964;79;21569;-83